Time;durP1;ratioP1;P1;durP2;ratioP2;P2;SDS_P1;SDS_P2;PMS_P1;PMS_P2;Temp;Humidity;BMP_temperature;BMP_pressure;BME280_temperature;BME280_humidity;BME280_pressure;Samples;Min_cycle;Max_cycle;Signal;HPM_P1;HPM_P2
2023/10/27 00:00:59;;;;;;;32.45;20.58;;;9.80;99.90;;;;;;4956094;28;20051;-70
2023/10/27 00:03:25;;;;;;;31.92;20.95;;;9.80;99.90;;;;;;4962422;28;20133;-70
2023/10/27 00:05:51;;;;;;;32.47;19.80;;;9.70;99.90;;;;;;4946254;28;20095;-71
2023/10/27 00:08:16;;;;;;;27.58;19.55;;;9.70;99.90;;;;;;4965663;28;20038;-70
2023/10/27 00:10:42;;;;;;;31.20;18.58;;;9.70;99.90;;;;;;4959385;28;20054;-72
2023/10/27 00:13:08;;;;;;;28.08;18.63;;;9.70;99.90;;;;;;4964349;28;20062;-71
2023/10/27 00:15:34;;;;;;;28.33;19.08;;;9.70;99.90;;;;;;4965282;28;20839;-75
2023/10/27 00:18:00;;;;;;;27.58;19.35;;;9.90;99.90;;;;;;4943226;29;20055;-72
2023/10/27 00:20:26;;;;;;;29.33;19.40;;;9.60;99.90;;;;;;4942738;29;20050;-74
2023/10/27 00:22:51;;;;;;;29.38;18.98;;;9.80;99.90;;;;;;4942656;29;20092;-73
2023/10/27 00:25:17;;;;;;;27.77;18.40;;;9.50;99.90;;;;;;4943922;29;20479;-74
2023/10/27 00:27:43;;;;;;;28.10;18.90;;;9.60;99.90;;;;;;4945692;29;20518;-71
2023/10/27 00:30:09;;;;;;;31.60;19.10;;;9.50;99.90;;;;;;4944629;29;20058;-71
2023/10/27 00:32:36;;;;;;;31.88;19.73;;;9.50;99.90;;;;;;4938158;29;20047;-74
2023/10/27 00:35:04;;;;;;;29.85;18.38;;;9.50;99.90;;;;;;4945778;28;20110;-70
2023/10/27 00:37:33;;;;;;;26.45;18.58;;;9.50;99.90;;;;;;4943282;28;20102;-74
2023/10/27 00:39:59;;;;;;;27.15;18.02;;;9.50;99.90;;;;;;4942569;29;20439;-71
2023/10/27 00:42:25;;;;;;;24.63;16.50;;;9.40;99.90;;;;;;4943066;29;20043;-75
2023/10/27 00:44:51;;;;;;;28.92;17.67;;;9.50;99.90;;;;;;4945443;28;20110;-75
2023/10/27 00:47:18;;;;;;;24.95;16.45;;;9.40;99.90;;;;;;4945701;29;20751;-73
2023/10/27 00:49:43;;;;;;;25.88;17.00;;;9.40;99.90;;;;;;4943072;28;20054;-70
2023/10/27 00:52:11;;;;;;;25.92;16.45;;;9.50;99.90;;;;;;4942479;29;20054;-73
2023/10/27 00:54:37;;;;;;;26.40;15.57;;;9.40;99.90;;;;;;4940768;28;20798;-70
2023/10/27 00:57:04;;;;;;;24.50;16.58;;;9.30;99.90;;;;;;4942026;29;20281;-71
2023/10/27 00:59:32;;;;;;;25.48;15.80;;;9.30;99.90;;;;;;4940357;29;20452;-71
2023/10/27 01:01:58;;;;;;;21.38;14.43;;;9.30;99.90;;;;;;4945051;29;20086;-70
2023/10/27 01:04:25;;;;;;;24.02;16.20;;;9.40;99.90;;;;;;4945076;28;20043;-71
2023/10/27 01:06:52;;;;;;;22.63;14.57;;;9.30;99.90;;;;;;4943976;28;20134;-70
2023/10/27 01:09:18;;;;;;;26.73;16.27;;;9.60;99.90;;;;;;4942290;29;20411;-69
2023/10/27 01:11:45;;;;;;;25.92;16.27;;;9.20;99.90;;;;;;4941775;29;20044;-70
2023/10/27 01:14:11;;;;;;;23.55;15.13;;;9.20;99.90;;;;;;4942462;29;20039;-74
2023/10/27 01:16:37;;;;;;;23.25;15.18;;;9.20;99.90;;;;;;4944733;29;20804;-74
2023/10/27 01:19:03;;;;;;;26.48;15.00;;;9.20;99.90;;;;;;4961939;28;20058;-74
2023/10/27 01:21:28;;;;;;;22.10;15.43;;;9.20;99.90;;;;;;4963836;28;20050;-70
2023/10/27 01:23:54;;;;;;;24.95;16.35;;;9.20;99.90;;;;;;4963709;28;20041;-71
2023/10/27 01:26:20;;;;;;;22.27;14.88;;;9.60;99.90;;;;;;4961296;28;20047;-70
2023/10/27 01:28:45;;;;;;;26.52;15.52;;;9.10;99.90;;;;;;4960807;28;20050;-70
2023/10/27 01:31:11;;;;;;;26.77;15.63;;;9.10;99.90;;;;;;4961361;28;20612;-70
2023/10/27 01:33:38;;;;;;;24.35;14.82;;;9.10;99.90;;;;;;4960536;28;20039;-71
2023/10/27 01:36:04;;;;;;;25.00;15.43;;;9.00;99.90;;;;;;4960557;28;20126;-72
2023/10/27 01:38:30;;;;;;;27.42;16.48;;;9.00;99.90;;;;;;4962792;28;20077;-71
2023/10/27 01:40:55;;;;;;;23.60;14.75;;;9.00;99.90;;;;;;4963663;28;20066;-71
2023/10/27 01:43:21;;;;;;;23.17;14.25;;;9.00;99.90;;;;;;4946582;28;20502;-73
2023/10/27 01:45:46;;;;;;;22.15;14.27;;;8.90;99.90;;;;;;4960300;28;20506;-69
2023/10/27 01:48:12;;;;;;;21.02;14.05;;;9.00;99.90;;;;;;4960583;28;20047;-75
2023/10/27 01:50:38;;;;;;;23.13;15.32;;;9.00;99.90;;;;;;4961941;28;20050;-73
2023/10/27 01:53:03;;;;;;;23.30;15.20;;;8.90;99.90;;;;;;4946058;28;20043;-69
2023/10/27 01:55:29;;;;;;;24.25;14.88;;;8.90;99.90;;;;;;4955557;28;20039;-70
2023/10/27 01:57:55;;;;;;;22.52;15.02;;;9.00;99.90;;;;;;4946001;28;20521;-71
2023/10/27 02:00:21;;;;;;;27.73;16.42;;;8.90;99.90;;;;;;4963062;28;20402;-71
2023/10/27 02:02:46;;;;;;;21.90;15.25;;;8.90;99.90;;;;;;4961745;28;20049;-69
2023/10/27 02:05:12;;;;;;;23.52;15.68;;;8.90;99.90;;;;;;4959901;28;20055;-71
2023/10/27 02:07:38;;;;;;;23.35;15.73;;;8.90;99.90;;;;;;4960058;28;20057;-71
2023/10/27 02:10:05;;;;;;;24.83;15.75;;;8.90;99.90;;;;;;4962344;28;20043;-69
2023/10/27 02:12:31;;;;;;;23.88;16.13;;;8.90;99.90;;;;;;4964196;28;20043;-73
2023/10/27 02:14:56;;;;;;;27.88;17.08;;;8.90;99.90;;;;;;4943487;28;20483;-74
2023/10/27 02:17:23;;;;;;;23.10;15.50;;;8.90;99.90;;;;;;4964208;28;20074;-70
2023/10/27 02:19:50;;;;;;;25.88;17.35;;;8.90;99.90;;;;;;4960209;28;20047;-71
2023/10/27 02:22:17;;;;;;;24.85;16.60;;;9.10;99.90;;;;;;4962414;28;20089;-70
2023/10/27 02:24:43;;;;;;;28.25;18.17;;;8.90;99.90;;;;;;4963121;28;20101;-73
2023/10/27 02:27:09;;;;;;;23.90;16.25;;;8.80;99.90;;;;;;4955932;28;20165;-71
2023/10/27 02:29:34;;;;;;;27.42;17.75;;;8.80;99.90;;;;;;4962444;28;20040;-69
2023/10/27 02:32:00;;;;;;;30.00;17.33;;;8.80;99.90;;;;;;4941711;29;20042;-74
2023/10/27 02:34:26;;;;;;;29.60;17.42;;;8.70;99.90;;;;;;4961731;28;20043;-74
2023/10/27 02:36:51;;;;;;;23.08;16.20;;;8.80;99.90;;;;;;4963160;28;20046;-75
2023/10/27 02:39:17;;;;;;;30.35;17.95;;;9.00;99.90;;;;;;4959625;28;20051;-72
2023/10/27 02:41:43;;;;;;;27.15;17.42;;;8.80;99.90;;;;;;4962671;28;20529;-73
2023/10/27 02:44:11;;;;;;;28.52;17.95;;;8.70;99.90;;;;;;4962871;28;20077;-70
2023/10/27 02:46:37;;;;;;;28.00;18.25;;;8.70;99.90;;;;;;4960581;28;20541;-73
2023/10/27 02:49:03;;;;;;;33.42;18.85;;;8.80;99.90;;;;;;4957378;28;20130;-71
2023/10/27 02:51:30;;;;;;;29.77;18.10;;;8.80;99.90;;;;;;4962490;28;20486;-71
2023/10/27 02:53:55;;;;;;;33.70;18.80;;;8.80;99.90;;;;;;4960068;28;20054;-72
2023/10/27 02:56:21;;;;;;;30.10;18.60;;;8.80;99.90;;;;;;4960210;28;20043;-72
2023/10/27 02:58:47;;;;;;;31.52;17.92;;;8.80;99.90;;;;;;4960959;28;20070;-74
2023/10/27 03:01:16;;;;;;;31.08;18.67;;;8.80;99.90;;;;;;4948985;28;20110;-72
2023/10/27 03:03:43;;;;;;;34.33;19.33;;;8.90;99.90;;;;;;4962307;28;20043;-74
2023/10/27 03:06:10;;;;;;;31.85;19.20;;;9.00;99.90;;;;;;4959865;28;20054;-74
2023/10/27 03:08:36;;;;;;;31.42;18.52;;;8.80;99.90;;;;;;4959564;28;20542;-71
2023/10/27 03:11:02;;;;;;;29.33;18.52;;;8.90;99.90;;;;;;4961183;28;20035;-72
2023/10/27 03:13:28;;;;;;;30.23;19.23;;;9.00;99.90;;;;;;4964258;28;20058;-74
2023/10/27 03:15:53;;;;;;;35.75;19.13;;;9.00;99.90;;;;;;4957914;28;20134;-71
2023/10/27 03:18:19;;;;;;;33.83;19.08;;;9.00;99.90;;;;;;4945611;28;20138;-75
2023/10/27 03:20:45;;;;;;;31.60;19.20;;;9.10;99.90;;;;;;4951032;28;20042;-70
2023/10/27 03:23:10;;;;;;;29.52;18.50;;;9.00;99.90;;;;;;4964449;28;20561;-72
2023/10/27 03:25:36;;;;;;;31.85;18.73;;;9.00;99.90;;;;;;4967561;28;20167;-73
2023/10/27 03:28:02;;;;;;;32.80;19.83;;;9.10;99.90;;;;;;4952872;28;20050;-73
2023/10/27 03:30:28;;;;;;;38.22;19.58;;;9.00;99.90;;;;;;4970600;28;20078;-72
2023/10/27 03:32:54;;;;;;;34.53;19.15;;;9.00;99.90;;;;;;4965434;28;20038;-74
2023/10/27 03:35:20;;;;;;;32.65;20.75;;;9.00;99.90;;;;;;4964670;28;20109;-70
2023/10/27 03:37:45;;;;;;;27.15;18.17;;;9.10;99.90;;;;;;4963012;28;20035;-70
2023/10/27 03:40:11;;;;;;;31.33;18.77;;;9.10;99.90;;;;;;4962478;28;20047;-72
2023/10/27 03:42:37;;;;;;;30.52;18.77;;;9.00;99.90;;;;;;4962589;28;20118;-73
2023/10/27 03:45:03;;;;;;;30.75;18.77;;;9.10;99.90;;;;;;4962486;28;20081;-74
2023/10/27 03:47:29;;;;;;;31.38;18.77;;;9.10;99.90;;;;;;4963145;28;20087;-74
2023/10/27 03:49:54;;;;;;;27.95;17.85;;;9.10;99.90;;;;;;4966248;28;20067;-70
2023/10/27 03:52:20;;;;;;;28.75;17.08;;;9.10;99.90;;;;;;4965227;28;20558;-71
2023/10/27 03:54:46;;;;;;;24.65;16.52;;;9.10;99.90;;;;;;4964663;28;20398;-74
2023/10/27 03:57:11;;;;;;;30.10;17.77;;;9.20;99.90;;;;;;4948310;28;20051;-71
2023/10/27 03:59:37;;;;;;;26.92;16.63;;;9.20;99.90;;;;;;4965020;28;20053;-71
2023/10/27 04:02:05;;;;;;;28.73;17.45;;;9.20;99.90;;;;;;4961886;28;20553;-74
2023/10/27 04:04:30;;;;;;;25.80;17.23;;;9.20;99.90;;;;;;4953742;28;20695;-74
2023/10/27 04:06:57;;;;;;;25.52;16.55;;;9.20;99.90;;;;;;4963007;28;20047;-74
2023/10/27 04:09:22;;;;;;;23.80;15.80;;;9.20;99.90;;;;;;4965425;28;20105;-73
2023/10/27 04:11:49;;;;;;;23.88;16.67;;;9.20;99.90;;;;;;4943442;28;20047;-74
2023/10/27 04:14:15;;;;;;;32.15;17.23;;;9.20;99.90;;;;;;4963346;28;20101;-70
2023/10/27 04:16:40;;;;;;;24.80;15.55;;;9.30;99.90;;;;;;4962671;28;20047;-71
2023/10/27 04:19:06;;;;;;;25.60;16.05;;;9.40;99.90;;;;;;4920133;28;1081003;-70
2023/10/27 04:21:32;;;;;;;25.70;15.27;;;9.20;99.90;;;;;;4944362;28;20046;-70
2023/10/27 04:23:59;;;;;;;27.58;16.10;;;9.30;99.90;;;;;;4944710;28;20047;-70
2023/10/27 04:26:24;;;;;;;26.13;16.55;;;9.30;99.90;;;;;;4962168;28;20082;-71
2023/10/27 04:28:50;;;;;;;23.63;15.38;;;9.20;99.90;;;;;;4966460;28;20470;-71
2023/10/27 04:31:16;;;;;;;25.05;15.80;;;9.30;99.90;;;;;;4959703;28;20410;-71
2023/10/27 04:33:43;;;;;;;22.88;15.35;;;9.40;99.90;;;;;;4961001;28;20047;-72
2023/10/27 04:36:09;;;;;;;24.50;15.75;;;9.30;99.90;;;;;;4963566;28;20043;-71
2023/10/27 04:38:34;;;;;;;21.13;15.27;;;9.30;99.90;;;;;;4963768;28;20585;-75
2023/10/27 04:41:00;;;;;;;21.92;15.23;;;9.40;99.90;;;;;;4961636;28;20130;-73
2023/10/27 04:43:25;;;;;;;25.55;15.43;;;9.30;99.90;;;;;;4963189;28;20117;-75
2023/10/27 04:45:51;;;;;;;23.30;14.85;;;9.40;99.90;;;;;;4960502;28;20509;-69
2023/10/27 04:48:17;;;;;;;21.80;15.27;;;9.30;99.90;;;;;;4947094;28;20059;-71
2023/10/27 04:50:42;;;;;;;24.20;15.20;;;9.30;99.90;;;;;;4964214;28;20043;-71
2023/10/27 04:53:08;;;;;;;19.50;14.02;;;9.60;99.90;;;;;;4964314;28;20046;-74
2023/10/27 04:55:34;;;;;;;20.13;14.93;;;9.50;99.90;;;;;;4943815;28;20051;-74
2023/10/27 04:58:00;;;;;;;24.10;15.18;;;9.40;99.90;;;;;;4949610;28;20054;-72
2023/10/27 05:00:25;;;;;;;23.20;15.38;;;9.40;99.90;;;;;;4962848;28;20090;-75
2023/10/27 05:02:53;;;;;;;22.35;14.63;;;9.40;99.90;;;;;;4967613;28;20054;-69
2023/10/27 05:05:21;;;;;;;23.88;14.65;;;9.30;99.90;;;;;;4961003;28;20057;-74
2023/10/27 05:07:50;;;;;;;23.40;14.35;;;9.40;99.90;;;;;;4966256;28;20043;-71
2023/10/27 05:10:15;;;;;;;20.48;14.10;;;9.40;99.90;;;;;;4961252;28;20047;-71
2023/10/27 05:12:41;;;;;;;25.48;15.43;;;9.40;99.90;;;;;;4962664;28;20043;-74
2023/10/27 05:15:07;;;;;;;20.98;14.55;;;9.40;99.90;;;;;;4946672;28;20126;-70
2023/10/27 05:17:37;;;;;;;22.92;14.27;;;9.40;99.90;;;;;;4944414;28;20065;-74
2023/10/27 05:20:05;;;;;;;26.95;16.73;;;9.40;99.90;;;;;;4935671;29;20055;-73
2023/10/27 05:22:31;;;;;;;22.65;15.25;;;9.50;99.90;;;;;;4967813;28;20065;-72
2023/10/27 05:25:03;;;;;;;22.60;15.02;;;9.40;99.90;;;;;;4961852;28;20035;-73
2023/10/27 05:27:28;;;;;;;23.15;15.63;;;9.40;99.90;;;;;;4960483;28;20051;-74
2023/10/27 05:29:54;;;;;;;23.67;15.70;;;9.40;99.90;;;;;;4961733;28;20483;-70
2023/10/27 05:32:19;;;;;;;21.85;15.80;;;9.40;99.90;;;;;;4963794;28;20053;-71
2023/10/27 05:34:45;;;;;;;19.00;14.52;;;9.40;99.90;;;;;;4963670;28;20397;-70
2023/10/27 05:37:11;;;;;;;22.38;15.30;;;9.50;99.90;;;;;;4961252;28;20049;-74
2023/10/27 05:39:36;;;;;;;21.92;14.65;;;9.50;99.90;;;;;;4958849;28;20486;-72
2023/10/27 05:42:02;;;;;;;21.30;15.45;;;9.60;99.90;;;;;;4962737;28;20047;-74
2023/10/27 05:44:28;;;;;;;23.23;15.55;;;9.40;99.90;;;;;;4960521;28;20039;-75
2023/10/27 05:46:53;;;;;;;21.48;15.77;;;9.40;99.90;;;;;;4960637;28;20102;-70
2023/10/27 05:49:19;;;;;;;21.23;15.27;;;9.60;99.90;;;;;;4961884;28;20050;-72
2023/10/27 05:51:46;;;;;;;21.10;15.05;;;9.70;99.90;;;;;;4963221;28;20799;-73
2023/10/27 05:54:12;;;;;;;20.70;15.23;;;9.40;99.90;;;;;;4963059;28;20126;-74
2023/10/27 05:56:37;;;;;;;20.35;14.93;;;9.40;99.90;;;;;;4960196;28;20126;-74
2023/10/27 05:59:05;;;;;;;22.58;15.25;;;9.50;99.90;;;;;;4959882;28;20062;-74
2023/10/27 06:01:31;;;;;;;20.60;14.20;;;9.40;99.90;;;;;;4966074;28;20050;-73
2023/10/27 06:03:59;;;;;;;19.65;14.88;;;9.50;99.90;;;;;;4961348;28;20481;-74
2023/10/27 06:06:27;;;;;;;21.92;15.45;;;9.80;99.90;;;;;;4963324;28;20045;-73
2023/10/27 06:08:53;;;;;;;21.15;14.40;;;9.50;99.90;;;;;;4960523;28;20065;-73
2023/10/27 06:11:19;;;;;;;22.05;15.02;;;9.40;99.90;;;;;;4960300;28;20035;-70
2023/10/27 06:13:45;;;;;;;28.25;15.27;;;9.40;99.90;;;;;;4960963;28;20049;-74
2023/10/27 06:16:11;;;;;;;22.50;14.93;;;9.60;99.90;;;;;;4960095;28;20061;-73
2023/10/27 06:18:37;;;;;;;20.83;14.98;;;9.40;99.90;;;;;;4942569;28;20499;-72
2023/10/27 06:21:04;;;;;;;19.42;15.18;;;9.40;99.90;;;;;;4962859;28;20054;-75
2023/10/27 06:23:29;;;;;;;21.65;14.48;;;9.50;99.90;;;;;;4962628;28;20051;-73
2023/10/27 06:25:55;;;;;;;18.77;14.25;;;9.40;99.90;;;;;;4943628;28;20050;-70
2023/10/27 06:28:21;;;;;;;23.35;14.95;;;9.40;99.90;;;;;;4959732;28;20094;-74
2023/10/27 06:30:46;;;;;;;20.27;14.45;;;9.40;99.90;;;;;;4959496;28;20140;-73
2023/10/27 06:33:12;;;;;;;21.70;15.07;;;9.40;99.90;;;;;;4963020;28;20502;-72
2023/10/27 06:35:38;;;;;;;22.30;14.50;;;9.60;99.90;;;;;;4962835;28;20505;-74
2023/10/27 06:38:04;;;;;;;21.48;14.57;;;9.40;99.90;;;;;;4961261;28;20112;-72
2023/10/27 06:40:29;;;;;;;20.88;14.32;;;9.70;99.90;;;;;;4956563;28;20561;-73
2023/10/27 06:42:55;;;;;;;23.38;15.40;;;9.40;99.90;;;;;;4963049;28;20042;-70
2023/10/27 06:45:20;;;;;;;19.92;15.15;;;9.50;99.90;;;;;;4960061;28;20106;-71
2023/10/27 06:47:46;;;;;;;23.45;15.05;;;9.50;99.90;;;;;;4942420;29;20471;-76
2023/10/27 06:50:12;;;;;;;25.15;14.98;;;9.60;99.90;;;;;;4960242;28;20427;-73
2023/10/27 06:52:38;;;;;;;22.48;15.52;;;9.50;99.90;;;;;;4945572;28;20055;-75
2023/10/27 06:55:03;;;;;;;24.65;15.95;;;9.40;99.90;;;;;;4966257;28;20047;-71
2023/10/27 06:57:30;;;;;;;23.73;16.50;;;9.50;99.90;;;;;;4964433;28;20038;-75
2023/10/27 06:59:56;;;;;;;22.02;15.30;;;9.40;99.90;;;;;;4963684;28;20051;-72
2023/10/27 07:02:24;;;;;;;24.42;16.08;;;9.50;99.90;;;;;;4963489;28;20050;-74
2023/10/27 07:04:50;;;;;;;23.30;15.63;;;9.50;99.90;;;;;;4963461;28;20090;-72
2023/10/27 07:07:16;;;;;;;21.45;15.63;;;9.50;99.90;;;;;;4963464;28;20054;-71
2023/10/27 07:09:42;;;;;;;22.80;15.38;;;9.50;99.90;;;;;;4965302;28;20047;-70
2023/10/27 07:12:08;;;;;;;21.60;15.25;;;9.50;99.90;;;;;;4966323;28;20046;-70
2023/10/27 07:14:36;;;;;;;24.98;16.88;;;9.50;99.90;;;;;;4941111;28;20805;-70
2023/10/27 07:17:01;;;;;;;22.02;16.13;;;9.50;99.90;;;;;;4951615;28;20053;-74
2023/10/27 07:19:27;;;;;;;26.67;17.40;;;9.50;99.90;;;;;;4961849;28;20059;-75
2023/10/27 07:21:53;;;;;;;25.58;16.08;;;9.60;99.90;;;;;;4971041;28;20089;-73
2023/10/27 07:24:18;;;;;;;22.98;15.98;;;9.60;99.90;;;;;;4963319;28;20074;-71
2023/10/27 07:26:44;;;;;;;23.77;15.98;;;9.60;99.90;;;;;;4963307;28;20058;-71
2023/10/27 07:29:10;;;;;;;22.00;15.82;;;9.60;99.90;;;;;;4965880;28;20058;-72
2023/10/27 07:31:35;;;;;;;22.17;16.38;;;9.70;99.90;;;;;;4962630;28;20047;-72
2023/10/27 07:34:02;;;;;;;20.33;15.88;;;9.70;99.90;;;;;;4963497;28;20043;-69
2023/10/27 07:36:27;;;;;;;21.77;15.65;;;9.60;99.90;;;;;;4968848;28;20068;-75
2023/10/27 07:38:53;;;;;;;22.35;15.30;;;9.70;99.90;;;;;;4962928;28;20079;-74
2023/10/27 07:41:19;;;;;;;23.95;16.95;;;9.70;99.90;;;;;;4962450;28;20509;-70
2023/10/27 07:43:44;;;;;;;29.35;16.67;;;9.70;99.90;;;;;;4962996;28;20534;-74
2023/10/27 07:46:11;;;;;;;23.92;16.08;;;9.90;99.90;;;;;;4963756;28;20083;-74
2023/10/27 07:48:37;;;;;;;25.45;16.60;;;9.80;99.90;;;;;;4965853;28;20049;-70
2023/10/27 07:51:03;;;;;;;25.30;15.98;;;9.80;99.90;;;;;;4965670;28;20140;-70
2023/10/27 07:53:29;;;;;;;23.55;15.73;;;9.80;99.90;;;;;;4962738;28;20130;-75
2023/10/27 07:55:56;;;;;;;18.35;14.48;;;10.00;99.90;;;;;;4943617;28;20049;-71
2023/10/27 07:58:23;;;;;;;22.85;15.50;;;9.90;99.90;;;;;;4939935;28;20126;-75
2023/10/27 08:00:51;;;;;;;22.38;16.15;;;9.90;99.90;;;;;;4963062;28;20050;-75
2023/10/27 08:03:17;;;;;;;22.40;14.98;;;10.20;99.90;;;;;;4962584;28;20407;-73
2023/10/27 08:05:43;;;;;;;25.42;16.17;;;9.90;99.90;;;;;;4960262;28;20051;-69
2023/10/27 08:08:09;;;;;;;21.83;15.85;;;10.00;99.90;;;;;;4962388;28;20085;-69
2023/10/27 08:10:38;;;;;;;21.25;14.48;;;10.00;99.90;;;;;;4958742;28;20118;-75
2023/10/27 08:13:05;;;;;;;20.88;15.07;;;10.00;99.90;;;;;;4959545;28;20105;-70
2023/10/27 08:15:32;;;;;;;18.58;13.82;;;10.10;99.90;;;;;;4965630;28;20039;-71
2023/10/27 08:17:58;;;;;;;19.88;13.48;;;10.40;99.90;;;;;;4962466;28;20049;-74
2023/10/27 08:20:23;;;;;;;20.58;14.77;;;10.10;99.90;;;;;;4962135;28;20419;-75
2023/10/27 08:22:49;;;;;;;18.88;14.02;;;10.20;99.90;;;;;;4963729;28;20098;-71
2023/10/27 08:25:15;;;;;;;17.60;12.90;;;10.20;99.90;;;;;;4948051;28;20364;-76
2023/10/27 08:27:40;;;;;;;18.35;13.15;;;10.20;99.90;;;;;;4965011;28;20486;-75
2023/10/27 08:30:07;;;;;;;18.83;13.38;;;10.20;99.90;;;;;;4962259;28;20032;-75
2023/10/27 08:32:32;;;;;;;19.75;13.07;;;10.20;99.90;;;;;;4944771;29;20138;-76
2023/10/27 08:34:58;;;;;;;17.50;12.98;;;10.50;99.90;;;;;;4946114;28;20471;-74
2023/10/27 08:37:25;;;;;;;18.58;13.50;;;10.20;99.90;;;;;;4966794;28;20043;-71
2023/10/27 08:39:52;;;;;;;21.75;13.38;;;10.40;99.90;;;;;;4965036;28;20129;-70
2023/10/27 08:42:18;;;;;;;16.52;12.73;;;10.40;99.90;;;;;;4959814;28;20101;-73
2023/10/27 08:44:45;;;;;;;18.48;12.80;;;10.30;99.90;;;;;;4969192;28;20521;-70
2023/10/27 08:47:12;;;;;;;16.63;12.65;;;10.40;99.90;;;;;;4957051;28;20052;-75
2023/10/27 08:49:38;;;;;;;18.02;12.77;;;10.40;99.90;;;;;;4960019;28;20491;-70
2023/10/27 08:52:04;;;;;;;16.23;12.15;;;10.40;99.90;;;;;;4962194;28;20050;-74
2023/10/27 08:54:31;;;;;;;17.40;13.25;;;10.40;99.90;;;;;;4962021;28;20054;-76
2023/10/27 08:56:56;;;;;;;17.45;12.85;;;10.40;99.90;;;;;;4944372;29;20126;-75
2023/10/27 08:59:22;;;;;;;16.42;12.95;;;10.40;99.90;;;;;;4962242;28;20130;-74
2023/10/27 09:01:48;;;;;;;17.58;12.70;;;10.40;99.90;;;;;;4964977;28;20051;-74
2023/10/27 09:04:19;;;;;;;20.20;14.23;;;10.70;99.90;;;;;;4961788;28;20048;-75
2023/10/27 09:06:45;;;;;;;19.75;13.45;;;10.40;99.90;;;;;;4952403;28;20047;-75
2023/10/27 09:09:10;;;;;;;17.10;13.27;;;10.40;99.90;;;;;;4964438;28;20049;-75
2023/10/27 09:11:41;;;;;;;18.35;13.30;;;10.40;99.90;;;;;;4960439;28;20130;-73
2023/10/27 09:14:37;;;;;;;18.33;13.73;;;10.40;99.90;;;;;;4962763;28;20042;-74
2023/10/27 09:17:08;;;;;;;18.88;13.57;;;10.80;99.90;;;;;;4916601;29;20531;-75
2023/10/27 09:19:34;;;;;;;16.95;12.80;;;10.50;99.90;;;;;;4925232;29;20063;-74
2023/10/27 09:22:00;;;;;;;17.58;13.32;;;10.40;99.90;;;;;;4915452;29;20058;-76
2023/10/27 09:24:28;;;;;;;19.80;13.75;;;10.50;99.90;;;;;;4931333;29;20052;-77
2023/10/27 09:26:55;;;;;;;17.58;13.10;;;10.90;99.90;;;;;;4931130;29;20102;-74
2023/10/27 09:29:21;;;;;;;16.70;13.50;;;10.50;99.90;;;;;;4915186;29;20087;-72
2023/10/27 09:31:48;;;;;;;18.92;13.52;;;10.60;99.90;;;;;;4931125;29;20055;-75
2023/10/27 09:34:21;;;;;;;18.58;13.70;;;10.60;99.90;;;;;;4930869;29;20059;-71
2023/10/27 09:36:58;;;;;;;18.92;13.75;;;10.60;99.90;;;;;;4915345;29;20138;-73
2023/10/27 09:39:24;;;;;;;22.17;14.65;;;10.50;99.90;;;;;;4917040;28;20511;-75
2023/10/27 09:42:00;;;;;;;19.25;13.90;;;10.60;99.90;;;;;;4930942;29;20051;-75
2023/10/27 09:45:01;;;;;;;20.83;14.05;;;10.60;99.90;;;;;;4916152;29;20079;-75
2023/10/27 09:47:50;;;;;;;19.48;13.52;;;10.60;99.90;;;;;;4915673;29;20048;-76
2023/10/27 09:50:24;;;;;;;18.13;13.48;;;10.60;99.90;;;;;;4914781;29;20051;-76
2023/10/27 09:52:50;;;;;;;17.05;13.35;;;10.70;99.90;;;;;;4941003;28;20070;-76
2023/10/27 09:55:19;;;;;;;20.30;13.60;;;10.70;99.90;;;;;;4962427;28;20568;-75
2023/10/27 09:57:45;;;;;;;18.38;13.23;;;10.80;99.90;;;;;;4943078;29;20058;-70
2023/10/27 10:00:16;;;;;;;17.63;13.45;;;10.70;99.90;;;;;;4960228;28;20062;-75
2023/10/27 10:02:42;;;;;;;18.20;13.52;;;10.70;99.90;;;;;;4952538;28;20113;-76
2023/10/27 10:05:09;;;;;;;15.63;13.15;;;10.80;99.90;;;;;;4960531;28;20054;-76
2023/10/27 10:07:44;;;;;;;18.90;12.85;;;10.80;99.90;;;;;;4961896;28;20047;-69
2023/10/27 10:10:16;;;;;;;17.17;13.77;;;11.00;99.90;;;;;;4963294;28;20137;-75
2023/10/27 10:13:01;;;;;;;18.08;12.88;;;11.10;99.90;;;;;;4961325;28;20043;-71
2023/10/27 10:15:31;;;;;;;16.92;13.05;;;10.90;99.90;;;;;;4960167;28;20051;-76
2023/10/27 10:17:58;;;;;;;15.93;12.85;;;11.00;99.90;;;;;;4952554;28;20031;-76
2023/10/27 10:20:47;;;;;;;16.77;12.80;;;11.00;99.90;;;;;;4959754;28;20125;-75
2023/10/27 10:23:14;;;;;;;17.10;12.82;;;10.90;99.90;;;;;;4936174;29;20499;-75
2023/10/27 10:25:56;;;;;;;20.08;12.02;;;10.90;99.90;;;;;;4959884;28;20050;-76
2023/10/27 10:28:36;;;;;;;17.42;13.60;;;11.20;99.90;;;;;;4953977;28;20047;-75
2023/10/27 10:31:08;;;;;;;16.35;12.43;;;11.10;99.90;;;;;;4961801;28;20051;-76
2023/10/27 10:33:34;;;;;;;17.52;13.02;;;11.10;99.90;;;;;;4962848;28;20063;-76
2023/10/27 10:36:27;;;;;;;15.73;11.57;;;11.20;99.90;;;;;;4961186;28;20471;-76
2023/10/27 10:38:55;;;;;;;14.88;11.18;;;11.10;99.90;;;;;;4955379;28;20428;-75
2023/10/27 10:41:21;;;;;;;15.10;11.10;;;11.10;99.90;;;;;;4951779;28;20051;-73
2023/10/27 10:44:13;;;;;;;15.00;10.60;;;11.10;99.90;;;;;;4959627;28;20075;-76
2023/10/27 10:46:39;;;;;;;14.07;10.80;;;11.10;99.90;;;;;;4953631;28;20055;-75
2023/10/27 10:49:05;;;;;;;19.45;11.27;;;11.10;99.90;;;;;;4959881;28;20504;-75
2023/10/27 10:51:39;;;;;;;14.82;10.55;;;11.10;99.90;;;;;;4945535;28;20073;-76
2023/10/27 10:54:13;;;;;;;13.85;11.07;;;11.10;99.90;;;;;;4962870;28;20050;-75
2023/10/27 10:56:40;;;;;;;13.40;10.57;;;11.10;99.90;;;;;;4952187;28;20074;-75
2023/10/27 10:59:05;;;;;;;13.93;10.07;;;11.10;99.90;;;;;;4959699;28;20047;-72
2023/10/27 11:01:31;;;;;;;13.55;10.52;;;11.10;99.90;;;;;;4961175;28;20058;-75
2023/10/27 11:03:57;;;;;;;16.98;10.75;;;11.00;99.90;;;;;;4962679;28;20391;-76
2023/10/27 11:06:28;;;;;;;14.02;10.52;;;11.00;99.90;;;;;;4962129;28;20054;-76
2023/10/27 11:08:54;;;;;;;16.30;9.80;;;11.10;99.90;;;;;;4959859;28;20123;-75
2023/10/27 11:11:21;;;;;;;14.23;10.90;;;11.00;99.90;;;;;;4959418;28;20446;-72
2023/10/27 11:13:50;;;;;;;13.15;9.90;;;11.00;99.90;;;;;;4962121;28;20055;-74
2023/10/27 11:16:16;;;;;;;13.95;11.30;;;11.20;99.90;;;;;;4962287;28;20039;-75
2023/10/27 11:18:46;;;;;;;14.75;10.98;;;11.00;99.90;;;;;;4960945;28;20097;-76
2023/10/27 11:21:19;;;;;;;14.77;10.45;;;11.20;99.90;;;;;;4959263;28;20086;-76
2023/10/27 11:23:47;;;;;;;14.57;10.85;;;11.00;99.90;;;;;;4960554;28;20050;-75
2023/10/27 11:26:14;;;;;;;14.32;10.85;;;11.10;99.90;;;;;;4962725;28;20058;-75
2023/10/27 11:28:41;;;;;;;14.23;10.73;;;11.10;99.90;;;;;;4962694;28;20046;-75
2023/10/27 11:31:13;;;;;;;14.10;10.80;;;11.10;99.90;;;;;;4941876;28;20059;-75
2023/10/27 11:34:00;;;;;;;12.82;10.13;;;11.10;99.90;;;;;;4959155;28;20054;-74
2023/10/27 11:36:43;;;;;;;13.90;10.60;;;11.10;99.90;;;;;;4953109;28;20394;-76
2023/10/27 11:39:20;;;;;;;14.18;11.18;;;11.10;99.90;;;;;;4944784;28;20490;-75
2023/10/27 11:41:53;;;;;;;18.60;11.07;;;11.10;99.90;;;;;;4966028;28;20050;-75
2023/10/27 11:44:19;;;;;;;15.88;11.68;;;11.10;99.90;;;;;;4963150;28;20165;-76
2023/10/27 11:46:54;;;;;;;14.57;11.35;;;11.00;99.90;;;;;;4962931;28;20702;-76
2023/10/27 11:49:20;;;;;;;14.90;10.85;;;11.10;99.90;;;;;;4965111;28;20050;-75
2023/10/27 11:51:47;;;;;;;18.45;12.10;;;11.10;99.90;;;;;;4965611;28;20039;-76
2023/10/27 11:54:15;;;;;;;15.43;11.48;;;11.00;99.90;;;;;;4964744;28;20054;-73
2023/10/27 11:56:41;;;;;;;17.70;11.80;;;11.00;99.90;;;;;;4945197;29;20082;-76
2023/10/27 11:59:07;;;;;;;14.40;10.93;;;11.10;99.90;;;;;;4962477;28;20093;-75
2023/10/27 12:01:33;;;;;;;16.42;10.60;;;11.00;99.90;;;;;;4965114;28;20051;-75
2023/10/27 12:04:00;;;;;;;15.73;11.65;;;11.00;99.90;;;;;;4965413;28;20096;-75
2023/10/27 12:06:26;;;;;;;15.05;11.77;;;11.00;99.90;;;;;;4964661;28;20078;-75
2023/10/27 12:08:51;;;;;;;15.85;12.32;;;11.00;99.90;;;;;;4945179;29;20498;-75
2023/10/27 12:11:17;;;;;;;18.48;13.35;;;11.00;99.90;;;;;;4962223;28;20063;-72
2023/10/27 12:13:46;;;;;;;15.88;12.63;;;11.10;99.90;;;;;;4964424;28;20050;-74
2023/10/27 12:16:13;;;;;;;16.25;12.35;;;11.00;99.90;;;;;;4947960;28;20122;-75
2023/10/27 12:18:38;;;;;;;16.42;12.73;;;10.90;99.90;;;;;;4946516;28;20510;-75
2023/10/27 12:21:04;;;;;;;16.48;12.88;;;10.90;99.90;;;;;;4962186;28;20055;-75
2023/10/27 12:23:30;;;;;;;16.95;12.68;;;10.90;99.90;;;;;;4945243;29;20055;-73
2023/10/27 12:25:57;;;;;;;19.83;13.60;;;10.90;99.90;;;;;;4964353;28;20087;-75
2023/10/27 12:28:23;;;;;;;18.27;13.05;;;10.90;99.90;;;;;;4964934;28;20054;-74
2023/10/27 12:30:49;;;;;;;20.08;13.48;;;10.90;99.90;;;;;;4963987;28;20050;-75
2023/10/27 12:33:15;;;;;;;17.30;13.00;;;10.80;99.90;;;;;;4961524;28;20442;-74